sensor_id;sensor_type;location;lat;lon;timestamp;pressure;altitude;pressure_sealevel;temperature;humidity
1077;BME280;64114;48.726;9.370;2023-01-29T00:02:10;99862.56;;;1.80;91.54
1077;BME280;64114;48.726;9.370;2023-01-29T00:04:38;99861.19;;;1.57;91.02
1077;BME280;64114;48.726;9.370;2023-01-29T00:07:08;99859.44;;;1.56;91.39
1077;BME280;64114;48.726;9.370;2023-01-29T00:09:36;99844.97;;;1.53;92.14
1077;BME280;64114;48.726;9.370;2023-01-29T00:12:04;99848.97;;;1.50;92.25
1077;BME280;64114;48.726;9.370;2023-01-29T00:14:34;99812.28;;;1.28;91.40
1077;BME280;64114;48.726;9.370;2023-01-29T00:17:02;99822.88;;;1.36;91.92
1077;BME280;64114;48.726;9.370;2023-01-29T00:19:30;99819.47;;;1.64;90.77
1077;BME280;64114;48.726;9.370;2023-01-29T00:21:58;99852.50;;;1.67;91.15
1077;BME280;64114;48.726;9.370;2023-01-29T00:24:27;99719.91;;;0.75;91.38
1077;BME280;64114;48.726;9.370;2023-01-29T00:26:55;99829.56;;;1.35;91.94
1077;BME280;64114;48.726;9.370;2023-01-29T00:29:24;99859.38;;;1.54;91.59
1077;BME280;64114;48.726;9.370;2023-01-29T00:31:52;99825.72;;;1.55;90.65
1077;BME280;64114;48.726;9.370;2023-01-29T00:34:20;99853.72;;;1.74;90.62
1077;BME280;64114;48.726;9.370;2023-01-29T00:36:49;99852.50;;;1.67;91.23
1077;BME280;64114;48.726;9.370;2023-01-29T00:39:16;99782.38;;;1.21;91.10
1077;BME280;64114;48.726;9.370;2023-01-29T00:42:06;99834.59;;;1.49;91.02
1077;BME280;64114;48.726;9.370;2023-01-29T00:44:51;99828.16;;;1.54;90.82
1077;BME280;64114;48.726;9.370;2023-01-29T00:47:25;99856.06;;;1.55;91.39
1077;BME280;64114;48.726;9.370;2023-01-29T00:50:00;99688.00;;;0.62;91.44
1077;BME280;64114;48.726;9.370;2023-01-29T00:52:29;99753.78;;;1.07;91.63
1077;BME280;64114;48.726;9.370;2023-01-29T00:54:58;99816.88;;;1.77;90.23
1077;BME280;64114;48.726;9.370;2023-01-29T00:57:29;99841.66;;;2.13;88.88
1077;BME280;64114;48.726;9.370;2023-01-29T00:59:57;99841.63;;;1.83;88.45
1077;BME280;64114;48.726;9.370;2023-01-29T01:02:26;99809.47;;;1.37;89.94
1077;BME280;64114;48.726;9.370;2023-01-29T01:05:14;99840.31;;;1.75;89.61
1077;BME280;64114;48.726;9.370;2023-01-29T01:07:45;99825.19;;;1.61;89.99
1077;BME280;64114;48.726;9.370;2023-01-29T01:10:15;99835.59;;;1.81;90.03
1077;BME280;64114;48.726;9.370;2023-01-29T01:12:51;99831.88;;;1.89;89.30
1077;BME280;64114;48.726;9.370;2023-01-29T01:15:21;99840.25;;;2.03;88.68
1077;BME280;64114;48.726;9.370;2023-01-29T01:17:53;99844.38;;;2.16;88.05
1077;BME280;64114;48.726;9.370;2023-01-29T01:20:22;99853.25;;;2.09;88.35
1077;BME280;64114;48.726;9.370;2023-01-29T01:22:52;99842.44;;;1.97;88.94
1077;BME280;64114;48.726;9.370;2023-01-29T01:25:20;99839.22;;;1.99;89.18
1077;BME280;64114;48.726;9.370;2023-01-29T01:27:52;99779.81;;;1.63;88.65
1077;BME280;64114;48.726;9.370;2023-01-29T01:30:22;99835.28;;;2.05;88.82
1077;BME280;64114;48.726;9.370;2023-01-29T01:32:51;99828.47;;;2.04;89.42
1077;BME280;64114;48.726;9.370;2023-01-29T01:35:19;99812.94;;;2.12;87.39
1077;BME280;64114;48.726;9.370;2023-01-29T01:37:47;99792.81;;;1.40;89.03
1077;BME280;64114;48.726;9.370;2023-01-29T01:42:46;99834.28;;;1.58;90.02
1077;BME280;64114;48.726;9.370;2023-01-29T01:45:21;99839.69;;;1.35;90.91
1077;BME280;64114;48.726;9.370;2023-01-29T01:47:54;99845.25;;;1.30;91.02
1077;BME280;64114;48.726;9.370;2023-01-29T01:50:27;99839.03;;;1.24;91.60
1077;BME280;64114;48.726;9.370;2023-01-29T01:52:59;99834.66;;;1.22;91.31
1077;BME280;64114;48.726;9.370;2023-01-29T01:55:30;99701.03;;;0.55;91.71
1077;BME280;64114;48.726;9.370;2023-01-29T01:58:05;99810.50;;;1.12;91.52
1077;BME280;64114;48.726;9.370;2023-01-29T02:00:37;99832.22;;;1.37;91.44
1077;BME280;64114;48.726;9.370;2023-01-29T02:03:08;99828.94;;;1.53;90.27
1077;BME280;64114;48.726;9.370;2023-01-29T02:05:56;99828.69;;;1.63;90.38
1077;BME280;64114;48.726;9.370;2023-01-29T02:08:48;99831.56;;;1.54;89.07
1077;BME280;64114;48.726;9.370;2023-01-29T02:11:36;99780.16;;;1.25;89.17
1077;BME280;64114;48.726;9.370;2023-01-29T02:14:05;99791.72;;;1.22;89.59
1077;BME280;64114;48.726;9.370;2023-01-29T02:16:36;99832.38;;;1.40;89.59
1077;BME280;64114;48.726;9.370;2023-01-29T02:19:09;99792.38;;;1.33;88.47
1077;BME280;64114;48.726;9.370;2023-01-29T02:21:51;99840.00;;;1.55;88.97
1077;BME280;64114;48.726;9.370;2023-01-29T02:24:55;99841.59;;;1.39;89.72
1077;BME280;64114;48.726;9.370;2023-01-29T02:27:32;99843.81;;;1.06;90.58
1077;BME280;64114;48.726;9.370;2023-01-29T02:30:10;99846.28;;;1.05;91.48
1077;BME280;64114;48.726;9.370;2023-01-29T02:32:49;99737.03;;;0.52;90.33
1077;BME280;64114;48.726;9.370;2023-01-29T02:35:28;99854.84;;;1.35;90.00
1077;BME280;64114;48.726;9.370;2023-01-29T02:38:10;99825.34;;;1.21;89.69
1077;BME280;64114;48.726;9.370;2023-01-29T02:40:43;99847.50;;;1.53;89.47
1077;BME280;64114;48.726;9.370;2023-01-29T02:43:25;99837.28;;;1.23;89.01
1077;BME280;64114;48.726;9.370;2023-01-29T02:46:03;99806.00;;;1.21;86.62
1077;BME280;64114;48.726;9.370;2023-01-29T02:48:39;99841.41;;;1.36;88.02
1077;BME280;64114;48.726;9.370;2023-01-29T02:51:14;99847.78;;;1.30;88.49
1077;BME280;64114;48.726;9.370;2023-01-29T02:53:49;99845.22;;;1.43;87.98
1077;BME280;64114;48.726;9.370;2023-01-29T02:56:24;99817.53;;;1.31;88.31
1077;BME280;64114;48.726;9.370;2023-01-29T02:58:58;99784.13;;;1.22;87.31
1077;BME280;64114;48.726;9.370;2023-01-29T03:01:32;99845.53;;;1.63;87.05
1077;BME280;64114;48.726;9.370;2023-01-29T03:04:05;99846.38;;;1.63;85.87
1077;BME280;64114;48.726;9.370;2023-01-29T03:06:37;99843.22;;;1.52;86.04
1077;BME280;64114;48.726;9.370;2023-01-29T03:09:13;99819.75;;;1.40;86.03
1077;BME280;64114;48.726;9.370;2023-01-29T03:11:50;99777.97;;;1.03;86.49
1077;BME280;64114;48.726;9.370;2023-01-29T03:14:24;99833.50;;;1.17;87.11
1077;BME280;64114;48.726;9.370;2023-01-29T03:17:21;99791.94;;;0.83;87.55
1077;BME280;64114;48.726;9.370;2023-01-29T03:19:53;99820.44;;;0.95;88.01
1077;BME280;64114;48.726;9.370;2023-01-29T03:22:23;99807.50;;;1.04;88.01
1077;BME280;64114;48.726;9.370;2023-01-29T03:24:56;99810.22;;;1.07;86.70
1077;BME280;64114;48.726;9.370;2023-01-29T03:27:47;99822.50;;;0.88;88.14
1077;BME280;64114;48.726;9.370;2023-01-29T03:30:41;99804.75;;;0.73;88.11
1077;BME280;64114;48.726;9.370;2023-01-29T03:33:44;99840.72;;;0.97;88.05
1077;BME280;64114;48.726;9.370;2023-01-29T03:36:16;99779.72;;;0.49;89.09
1077;BME280;64114;48.726;9.370;2023-01-29T03:38:46;99839.59;;;0.78;88.42
1077;BME280;64114;48.726;9.370;2023-01-29T03:41:21;99841.06;;;0.88;88.19
1077;BME280;64114;48.726;9.370;2023-01-29T03:43:55;99734.91;;;0.45;88.32
1077;BME280;64114;48.726;9.370;2023-01-29T03:46:31;99838.38;;;1.14;87.28
1077;BME280;64114;48.726;9.370;2023-01-29T03:49:10;99833.09;;;1.24;87.34
1077;BME280;64114;48.726;9.370;2023-01-29T03:51:49;99812.13;;;1.25;86.82
1077;BME280;64114;48.726;9.370;2023-01-29T03:54:24;99834.09;;;1.54;85.05
1077;BME280;64114;48.726;9.370;2023-01-29T03:56:57;99837.91;;;1.06;85.77
1077;BME280;64114;48.726;9.370;2023-01-29T03:59:34;99841.97;;;1.17;86.43
1077;BME280;64114;48.726;9.370;2023-01-29T04:02:29;99804.75;;;1.15;84.70
1077;BME280;64114;48.726;9.370;2023-01-29T04:05:08;99844.50;;;1.17;85.05
1077;BME280;64114;48.726;9.370;2023-01-29T04:07:52;99840.38;;;1.33;85.23
1077;BME280;64114;48.726;9.370;2023-01-29T04:10:25;99823.78;;;1.23;85.00
1077;BME280;64114;48.726;9.370;2023-01-29T04:12:57;99844.00;;;1.23;85.34
1077;BME280;64114;48.726;9.370;2023-01-29T04:15:28;99803.09;;;0.73;85.94
1077;BME280;64114;48.726;9.370;2023-01-29T04:17:59;99830.34;;;1.06;85.65
1077;BME280;64114;48.726;9.370;2023-01-29T04:20:45;99763.38;;;0.84;85.88
1077;BME280;64114;48.726;9.370;2023-01-29T04:23:20;99839.59;;;1.34;85.70
1077;BME280;64114;48.726;9.370;2023-01-29T04:25:56;99802.97;;;0.99;85.90
1077;BME280;64114;48.726;9.370;2023-01-29T04:28:45;99841.47;;;1.23;86.49
1077;BME280;64114;48.726;9.370;2023-01-29T04:31:15;99795.00;;;0.92;86.17
1077;BME280;64114;48.726;9.370;2023-01-29T04:33:50;99811.69;;;1.32;86.19
1077;BME280;64114;48.726;9.370;2023-01-29T04:36:27;99850.53;;;1.19;86.46
1077;BME280;64114;48.726;9.370;2023-01-29T04:39:06;99849.41;;;1.29;nan
1077;BME280;64114;48.726;9.370;2023-01-29T04:41:43;99829.88;;;0.85;86.78
1077;BME280;64114;48.726;9.370;2023-01-29T04:44:17;99829.78;;;0.83;87.54
1077;BME280;64114;48.726;9.370;2023-01-29T04:46:51;99785.84;;;0.66;87.20
1077;BME280;64114;48.726;9.370;2023-01-29T04:49:30;99845.44;;;1.33;86.03
1077;BME280;64114;48.726;9.370;2023-01-29T04:52:07;99826.72;;;1.16;85.56
1077;BME280;64114;48.726;9.370;2023-01-29T04:54:48;99842.03;;;1.32;85.90
1077;BME280;64114;48.726;9.370;2023-01-29T04:57:21;99835.00;;;1.42;85.61
1077;BME280;64114;48.726;9.370;2023-01-29T04:59:57;99797.22;;;1.01;85.74
1077;BME280;64114;48.726;9.370;2023-01-29T05:02:27;99807.66;;;1.21;85.80
1077;BME280;64114;48.726;9.370;2023-01-29T05:04:57;99852.16;;;1.19;86.28
1077;BME280;64114;48.726;9.370;2023-01-29T05:07:27;99848.41;;;1.12;86.87
1077;BME280;64114;48.726;9.370;2023-01-29T05:09:57;99825.72;;;0.85;87.36
1077;BME280;64114;48.726;9.370;2023-01-29T05:12:27;99847.69;;;1.15;86.85
1077;BME280;64114;48.726;9.370;2023-01-29T05:15:00;99848.59;;;1.15;86.40
1077;BME280;64114;48.726;9.370;2023-01-29T05:17:29;99854.25;;;0.84;87.81
1077;BME280;64114;48.726;9.370;2023-01-29T05:19:57;99850.44;;;1.04;87.89
1077;BME280;64114;48.726;9.370;2023-01-29T05:22:26;99844.53;;;0.90;87.78
1077;BME280;64114;48.726;9.370;2023-01-29T05:24:54;99759.53;;;0.49;87.47
1077;BME280;64114;48.726;9.370;2023-01-29T05:27:28;99847.72;;;1.01;88.05
1077;BME280;64114;48.726;9.370;2023-01-29T05:30:15;99849.09;;;0.83;87.76
1077;BME280;64114;48.726;9.370;2023-01-29T05:32:44;99845.22;;;0.88;88.21
1077;BME280;64114;48.726;9.370;2023-01-29T05:35:11;99853.38;;;0.84;87.50
1077;BME280;64114;48.726;9.370;2023-01-29T05:37:41;99867.16;;;0.75;88.42
1077;BME280;64114;48.726;9.370;2023-01-29T05:40:09;99705.34;;;-0.64;87.71
1077;BME280;64114;48.726;9.370;2023-01-29T05:42:37;99745.97;;;0.20;87.82
1077;BME280;64114;48.726;9.370;2023-01-29T05:45:07;99848.31;;;0.84;88.25
1077;BME280;64114;48.726;9.370;2023-01-29T05:47:35;99828.91;;;0.83;87.99
1077;BME280;64114;48.726;9.370;2023-01-29T05:50:04;99844.13;;;1.11;87.26
1077;BME280;64114;48.726;9.370;2023-01-29T05:52:32;99848.28;;;1.10;87.18
1077;BME280;64114;48.726;9.370;2023-01-29T05:55:02;99814.41;;;1.07;86.57
1077;BME280;64114;48.726;9.370;2023-01-29T05:57:30;99839.41;;;1.31;86.89
1077;BME280;64114;48.726;9.370;2023-01-29T05:59:58;99764.34;;;1.15;85.56
1077;BME280;64114;48.726;9.370;2023-01-29T06:02:28;99819.22;;;1.74;84.15
1077;BME280;64114;48.726;9.370;2023-01-29T06:04:56;99806.75;;;1.34;84.83
1077;BME280;64114;48.726;9.370;2023-01-29T06:07:24;99697.06;;;0.31;86.51
1077;BME280;64114;48.726;9.370;2023-01-29T06:09:51;99803.84;;;1.28;86.69
1077;BME280;64114;48.726;9.370;2023-01-29T06:12:21;99794.25;;;1.50;86.29
1077;BME280;64114;48.726;9.370;2023-01-29T06:14:49;99809.13;;;1.17;87.30
1077;BME280;64114;48.726;9.370;2023-01-29T06:17:17;99814.38;;;1.20;86.86
1077;BME280;64114;48.726;9.370;2023-01-29T06:19:45;99768.19;;;0.66;87.21
1077;BME280;64114;48.726;9.370;2023-01-29T06:22:13;99707.88;;;0.29;87.11
1077;BME280;64114;48.726;9.370;2023-01-29T06:24:41;99814.34;;;0.78;87.91
1077;BME280;64114;48.726;9.370;2023-01-29T06:27:09;99749.56;;;0.50;87.41
1077;BME280;64114;48.726;9.370;2023-01-29T06:29:38;99829.50;;;0.78;88.03
1077;BME280;64114;48.726;9.370;2023-01-29T06:32:06;99785.66;;;0.49;87.11
1077;BME280;64114;48.726;9.370;2023-01-29T06:34:34;99788.59;;;0.42;86.70
1077;BME280;64114;48.726;9.370;2023-01-29T06:37:01;99706.59;;;-0.05;87.74
1077;BME280;64114;48.726;9.370;2023-01-29T06:39:29;99779.94;;;0.39;88.21
1077;BME280;64114;48.726;9.370;2023-01-29T06:41:57;99843.97;;;0.54;88.42
1077;BME280;64114;48.726;9.370;2023-01-29T06:44:25;99835.25;;;0.62;88.65
1077;BME280;64114;48.726;9.370;2023-01-29T06:46:55;99727.34;;;0.04;88.14
1077;BME280;64114;48.726;9.370;2023-01-29T06:49:22;99834.53;;;0.78;87.19
1077;BME280;64114;48.726;9.370;2023-01-29T06:51:50;99861.44;;;1.05;84.79
1077;BME280;64114;48.726;9.370;2023-01-29T06:54:18;99817.84;;;0.80;84.69
1077;BME280;64114;48.726;9.370;2023-01-29T06:56:46;99783.28;;;0.79;85.29
1077;BME280;64114;48.726;9.370;2023-01-29T06:59:14;99797.06;;;0.85;85.91
1077;BME280;64114;48.726;9.370;2023-01-29T07:01:42;99856.75;;;1.11;85.77
1077;BME280;64114;48.726;9.370;2023-01-29T07:04:12;99726.69;;;0.20;86.79
1077;BME280;64114;48.726;9.370;2023-01-29T07:06:39;99837.25;;;0.81;87.11
1077;BME280;64114;48.726;9.370;2023-01-29T07:09:10;99855.03;;;0.96;87.37
1077;BME280;64114;48.726;9.370;2023-01-29T07:11:39;99857.91;;;1.16;86.79
1077;BME280;64114;48.726;9.370;2023-01-29T07:14:07;99844.00;;;1.09;86.12
1077;BME280;64114;48.726;9.370;2023-01-29T07:16:35;99857.38;;;1.35;85.49
1077;BME280;64114;48.726;9.370;2023-01-29T07:19:03;99864.09;;;1.35;85.40
1077;BME280;64114;48.726;9.370;2023-01-29T07:21:32;99844.72;;;1.35;85.26
1077;BME280;64114;48.726;9.370;2023-01-29T07:24:00;99856.81;;;1.26;84.75
1077;BME280;64114;48.726;9.370;2023-01-29T07:26:28;99857.28;;;1.34;85.00
1077;BME280;64114;48.726;9.370;2023-01-29T07:28:56;99860.28;;;1.00;84.95
1077;BME280;64114;48.726;9.370;2023-01-29T07:31:24;99856.38;;;0.91;85.20
1077;BME280;64114;48.726;9.370;2023-01-29T07:33:52;99857.22;;;1.05;84.77
1077;BME280;64114;48.726;9.370;2023-01-29T07:36:19;99860.84;;;1.09;85.04
1077;BME280;64114;48.726;9.370;2023-01-29T07:38:49;99861.69;;;1.09;85.15
1077;BME280;64114;48.726;9.370;2023-01-29T07:41:17;99867.69;;;1.25;85.34
1077;BME280;64114;48.726;9.370;2023-01-29T07:43:45;99858.75;;;1.30;85.02
1077;BME280;64114;48.726;9.370;2023-01-29T07:46:14;99868.81;;;1.44;84.79
1077;BME280;64114;48.726;9.370;2023-01-29T07:48:42;99869.13;;;1.63;83.82
1077;BME280;64114;48.726;9.370;2023-01-29T07:51:10;99874.06;;;1.75;83.55
1077;BME280;64114;48.726;9.370;2023-01-29T07:53:38;99870.94;;;1.79;83.38
1077;BME280;64114;48.726;9.370;2023-01-29T07:56:07;99848.66;;;1.59;82.85
1077;BME280;64114;48.726;9.370;2023-01-29T07:58:35;99882.75;;;2.09;81.15
1077;BME280;64114;48.726;9.370;2023-01-29T08:01:04;99876.19;;;1.82;81.30
1077;BME280;64114;48.726;9.370;2023-01-29T08:03:33;99884.25;;;1.48;82.13
1077;BME280;64114;48.726;9.370;2023-01-29T08:06:02;99890.81;;;1.31;83.05
1077;BME280;64114;48.726;9.370;2023-01-29T08:08:30;99887.78;;;1.37;82.89
1077;BME280;64114;48.726;9.370;2023-01-29T08:10:59;99863.75;;;1.15;82.52
1077;BME280;64114;48.726;9.370;2023-01-29T08:13:29;99884.94;;;1.46;82.92
1077;BME280;64114;48.726;9.370;2023-01-29T08:15:58;99885.41;;;1.82;81.84
1077;BME280;64114;48.726;9.370;2023-01-29T08:18:27;99872.94;;;1.28;81.60
1077;BME280;64114;48.726;9.370;2023-01-29T08:20:58;99855.06;;;1.25;81.71
1077;BME280;64114;48.726;9.370;2023-01-29T08:23:25;99880.53;;;1.57;81.71
1077;BME280;64114;48.726;9.370;2023-01-29T08:25:54;99885.75;;;1.73;81.28
1077;BME280;64114;48.726;9.370;2023-01-29T08:28:22;99882.09;;;1.83;81.36
1077;BME280;64114;48.726;9.370;2023-01-29T08:30:52;99887.50;;;1.89;80.96
1077;BME280;64114;48.726;9.370;2023-01-29T08:33:20;99868.25;;;1.91;80.46
1077;BME280;64114;48.726;9.370;2023-01-29T08:36:05;99896.91;;;1.77;79.96
1077;BME280;64114;48.726;9.370;2023-01-29T08:38:34;99766.56;;;1.23;80.18
1077;BME280;64114;48.726;9.370;2023-01-29T08:41:04;99902.84;;;2.36;79.21
1077;BME280;64114;48.726;9.370;2023-01-29T08:43:33;99904.41;;;2.34;78.68
1077;BME280;64114;48.726;9.370;2023-01-29T08:46:04;99871.22;;;1.55;78.77
1077;BME280;64114;48.726;9.370;2023-01-29T08:48:32;99903.63;;;1.76;79.14
1077;BME280;64114;48.726;9.370;2023-01-29T08:51:01;99879.09;;;1.47;78.98
1077;BME280;64114;48.726;9.370;2023-01-29T08:53:30;99908.97;;;1.39;80.43
1077;BME280;64114;48.726;9.370;2023-01-29T08:55:58;99912.75;;;1.46;81.22
1077;BME280;64114;48.726;9.370;2023-01-29T08:58:25;99923.81;;;1.48;80.86
1077;BME280;64114;48.726;9.370;2023-01-29T09:00:53;99893.09;;;1.13;81.22
1077;BME280;64114;48.726;9.370;2023-01-29T09:03:23;99895.00;;;1.31;80.86
1077;BME280;64114;48.726;9.370;2023-01-29T09:05:51;99814.84;;;0.86;81.22
1077;BME280;64114;48.726;9.370;2023-01-29T09:08:19;99809.81;;;0.73;80.54
1077;BME280;64114;48.726;9.370;2023-01-29T09:10:47;99824.91;;;1.00;79.55
1077;BME280;64114;48.726;9.370;2023-01-29T09:13:15;99797.06;;;0.85;78.59
1077;BME280;64114;48.726;9.370;2023-01-29T09:15:43;99817.75;;;0.92;78.08
1077;BME280;64114;48.726;9.370;2023-01-29T09:18:11;99923.41;;;2.12;77.11
1077;BME280;64114;48.726;9.370;2023-01-29T09:20:40;99919.34;;;1.86;77.04
1077;BME280;64114;48.726;9.370;2023-01-29T09:23:09;99862.59;;;1.10;78.45
1077;BME280;64114;48.726;9.370;2023-01-29T09:25:37;99883.38;;;1.48;78.86
1077;BME280;64114;48.726;9.370;2023-01-29T09:28:05;99871.19;;;1.27;77.10
1077;BME280;64114;48.726;9.370;2023-01-29T09:30:33;99904.38;;;1.47;76.94
1077;BME280;64114;48.726;9.370;2023-01-29T09:33:04;99885.97;;;1.21;77.10
1077;BME280;64114;48.726;9.370;2023-01-29T09:35:32;99922.00;;;1.45;76.77
1077;BME280;64114;48.726;9.370;2023-01-29T09:38:01;99743.56;;;0.90;76.60
1077;BME280;64114;48.726;9.370;2023-01-29T09:40:33;99905.50;;;2.09;76.02
1077;BME280;64114;48.726;9.370;2023-01-29T09:43:05;99919.22;;;2.27;75.06
1077;BME280;64114;48.726;9.370;2023-01-29T09:45:34;99915.63;;;1.94;75.19
1077;BME280;64114;48.726;9.370;2023-01-29T09:48:02;99925.44;;;2.33;75.85
1077;BME280;64114;48.726;9.370;2023-01-29T09:50:35;99928.03;;;2.19;74.76
1077;BME280;64114;48.726;9.370;2023-01-29T09:53:12;99900.63;;;1.97;75.76
1077;BME280;64114;48.726;9.370;2023-01-29T09:55:47;99928.00;;;1.76;77.03
1077;BME280;64114;48.726;9.370;2023-01-29T09:58:19;99913.88;;;2.08;75.46
1077;BME280;64114;48.726;9.370;2023-01-29T10:00:54;99904.72;;;2.10;75.87
1077;BME280;64114;48.726;9.370;2023-01-29T10:03:41;99898.13;;;2.42;74.70
1077;BME280;64114;48.726;9.370;2023-01-29T10:06:20;99879.25;;;2.67;74.14
1077;BME280;64114;48.726;9.370;2023-01-29T10:09:04;99907.00;;;2.65;73.24
1077;BME280;64114;48.726;9.370;2023-01-29T10:11:45;99877.78;;;3.02;72.50
1077;BME280;64114;48.726;9.370;2023-01-29T10:14:20;99864.47;;;3.38;70.72
1077;BME280;64114;48.726;9.370;2023-01-29T10:17:01;99868.19;;;3.61;69.66
1077;BME280;64114;48.726;9.370;2023-01-29T10:19:46;99792.06;;;3.43;68.39
1077;BME280;64114;48.726;9.370;2023-01-29T10:25:20;99849.94;;;4.54;67.02
1077;BME280;64114;48.726;9.370;2023-01-29T10:27:52;99842.09;;;4.68;67.38
1077;BME280;64114;48.726;9.370;2023-01-29T10:30:28;99816.09;;;4.73;66.27
1077;BME280;64114;48.726;9.370;2023-01-29T10:33:01;99805.41;;;4.61;65.18
1077;BME280;64114;48.726;9.370;2023-01-29T10:35:32;99842.81;;;4.83;65.13
1077;BME280;64114;48.726;9.370;2023-01-29T10:38:14;99808.38;;;4.52;65.82
1077;BME280;64114;48.726;9.370;2023-01-29T10:40:52;99853.97;;;4.14;66.15
1077;BME280;64114;48.726;9.370;2023-01-29T10:43:28;99860.81;;;3.99;67.75
1077;BME280;64114;48.726;9.370;2023-01-29T10:46:10;99797.44;;;3.32;67.54
1077;BME280;64114;48.726;9.370;2023-01-29T10:48:54;99841.56;;;3.53;68.90
1077;BME280;64114;48.726;9.370;2023-01-29T10:51:43;99823.44;;;3.45;68.68
1077;BME280;64114;48.726;9.370;2023-01-29T10:54:25;99854.94;;;4.00;68.50
1077;BME280;64114;48.726;9.370;2023-01-29T10:57:09;99852.75;;;3.56;69.44
1077;BME280;64114;48.726;9.370;2023-01-29T10:59:55;99847.72;;;3.91;69.09
1077;BME280;64114;48.726;9.370;2023-01-29T11:02:26;99842.50;;;3.71;69.13
1077;BME280;64114;48.726;9.370;2023-01-29T11:04:54;99848.78;;;3.78;68.80
1077;BME280;64114;48.726;9.370;2023-01-29T11:07:22;99849.25;;;3.38;69.75
1077;BME280;64114;48.726;9.370;2023-01-29T11:09:56;99850.44;;;3.28;70.36
1077;BME280;64114;48.726;9.370;2023-01-29T11:12:27;99839.09;;;3.21;70.71
1077;BME280;64114;48.726;9.370;2023-01-29T11:15:00;99855.66;;;3.47;69.85
1077;BME280;64114;48.726;9.370;2023-01-29T11:17:29;99851.31;;;3.78;69.89
1077;BME280;64114;48.726;9.370;2023-01-29T11:19:58;99842.69;;;3.25;70.99
1077;BME280;64114;48.726;9.370;2023-01-29T11:22:27;99835.97;;;2.32;73.15
1077;BME280;64114;48.726;9.370;2023-01-29T11:25:09;99837.19;;;2.24;74.93
1077;BME280;64114;48.726;9.370;2023-01-29T11:27:45;99839.53;;;2.97;73.12
1077;BME280;64114;48.726;9.370;2023-01-29T11:30:18;99831.97;;;3.30;71.09
1077;BME280;64114;48.726;9.370;2023-01-29T11:32:50;99825.00;;;3.26;70.93
1077;BME280;64114;48.726;9.370;2023-01-29T11:35:21;99843.72;;;3.45;70.86
1077;BME280;64114;48.726;9.370;2023-01-29T11:37:49;99838.84;;;3.00;71.16
1077;BME280;64114;48.726;9.370;2023-01-29T11:40:39;99839.00;;;3.03;71.73
1077;BME280;64114;48.726;9.370;2023-01-29T11:43:17;99828.44;;;2.95;71.89
1077;BME280;64114;48.726;9.370;2023-01-29T11:45:47;99814.16;;;3.45;70.63
1077;BME280;64114;48.726;9.370;2023-01-29T11:48:17;99801.28;;;3.75;69.43
1077;BME280;64114;48.726;9.370;2023-01-29T11:50:54;99806.97;;;3.88;68.55
1077;BME280;64114;48.726;9.370;2023-01-29T11:53:32;99802.66;;;4.03;68.51
1077;BME280;64114;48.726;9.370;2023-01-29T11:56:03;99804.16;;;4.16;67.95
1077;BME280;64114;48.726;9.370;2023-01-29T11:58:34;99758.97;;;3.74;67.99
1077;BME280;64114;48.726;9.370;2023-01-29T12:01:02;99809.00;;;3.77;69.45
1077;BME280;64114;48.726;9.370;2023-01-29T12:03:35;99798.06;;;3.96;68.01
1077;BME280;64114;48.726;9.370;2023-01-29T12:06:07;99795.91;;;2.86;70.53
1077;BME280;64114;48.726;9.370;2023-01-29T12:08:41;99800.19;;;3.37;70.47
1077;BME280;64114;48.726;9.370;2023-01-29T12:11:11;99786.97;;;3.10;71.08
1077;BME280;64114;48.726;9.370;2023-01-29T12:13:41;99780.50;;;3.48;69.75
1077;BME280;64114;48.726;9.370;2023-01-29T12:16:16;99782.13;;;3.64;69.41
1077;BME280;64114;48.726;9.370;2023-01-29T12:18:49;99769.38;;;3.63;69.07
1077;BME280;64114;48.726;9.370;2023-01-29T12:21:26;99762.00;;;4.02;67.41
1077;BME280;64114;48.726;9.370;2023-01-29T12:24:00;99760.06;;;4.14;67.36
1077;BME280;64114;48.726;9.370;2023-01-29T12:26:32;99722.84;;;3.62;67.66
1077;BME280;64114;48.726;9.370;2023-01-29T12:29:32;99734.19;;;3.87;67.96
1077;BME280;64114;48.726;9.370;2023-01-29T12:32:10;99718.78;;;4.00;66.33
1077;BME280;64114;48.726;9.370;2023-01-29T12:34:44;99702.69;;;4.18;70.68
1077;BME280;64114;48.726;9.370;2023-01-29T12:37:19;99706.88;;;4.73;69.37
1077;BME280;64114;48.726;9.370;2023-01-29T12:39:50;99691.00;;;4.40;66.97
1077;BME280;64114;48.726;9.370;2023-01-29T12:42:19;99545.50;;;3.83;66.64
1077;BME280;64114;48.726;9.370;2023-01-29T12:44:52;99678.25;;;4.38;66.52
1077;BME280;64114;48.726;9.370;2023-01-29T12:47:26;99641.19;;;4.05;66.74
1077;BME280;64114;48.726;9.370;2023-01-29T12:50:02;99676.47;;;4.75;66.03
1077;BME280;64114;48.726;9.370;2023-01-29T12:52:36;99472.53;;;3.97;64.97
1077;BME280;64114;48.726;9.370;2023-01-29T12:55:12;99666.97;;;5.10;64.53
1077;BME280;64114;48.726;9.370;2023-01-29T12:57:46;99658.34;;;4.87;64.46
1077;BME280;64114;48.726;9.370;2023-01-29T13:00:20;99669.25;;;4.27;66.62
1077;BME280;64114;48.726;9.370;2023-01-29T13:02:54;99660.19;;;5.11;65.28
1077;BME280;64114;48.726;9.370;2023-01-29T13:05:25;99651.44;;;5.23;63.97
1077;BME280;64114;48.726;9.370;2023-01-29T13:08:00;99531.13;;;3.84;64.28
1077;BME280;64114;48.726;9.370;2023-01-29T13:10:33;99667.38;;;4.04;67.23
1077;BME280;64114;48.726;9.370;2023-01-29T13:13:09;99650.44;;;4.41;66.84
1077;BME280;64114;48.726;9.370;2023-01-29T13:15:42;99583.56;;;4.41;65.99
1077;BME280;64114;48.726;9.370;2023-01-29T13:18:32;99602.97;;;4.79;65.52
1077;BME280;64114;48.726;9.370;2023-01-29T13:21:05;99643.25;;;5.31;63.78
1077;BME280;64114;48.726;9.370;2023-01-29T13:23:41;99641.84;;;4.57;64.95
1077;BME280;64114;48.726;9.370;2023-01-29T13:26:10;99634.41;;;4.42;66.17
1077;BME280;64114;48.726;9.370;2023-01-29T13:28:43;99645.84;;;4.14;66.76
1077;BME280;64114;48.726;9.370;2023-01-29T13:31:20;99643.53;;;3.83;67.68
1077;BME280;64114;48.726;9.370;2023-01-29T13:33:53;99644.78;;;4.09;67.75
1077;BME280;64114;48.726;9.370;2023-01-29T13:36:25;99609.44;;;4.14;67.25
1077;BME280;64114;48.726;9.370;2023-01-29T13:38:59;99638.22;;;4.52;66.49
1077;BME280;64114;48.726;9.370;2023-01-29T13:41:36;99642.06;;;4.24;66.74
1077;BME280;64114;48.726;9.370;2023-01-29T13:44:07;99652.38;;;3.73;68.11
1077;BME280;64114;48.726;9.370;2023-01-29T13:46:40;99654.72;;;4.42;66.94
1077;BME280;64114;48.726;9.370;2023-01-29T13:49:23;99637.69;;;4.99;65.21
1077;BME280;64114;48.726;9.370;2023-01-29T13:51:56;99562.59;;;4.86;64.94
1077;BME280;64114;48.726;9.370;2023-01-29T13:54:25;99640.41;;;5.44;64.17
1077;BME280;64114;48.726;9.370;2023-01-29T13:56:57;99644.03;;;5.49;62.87
1077;BME280;64114;48.726;9.370;2023-01-29T13:59:50;99646.94;;;4.01;66.80